Time;durP1;ratioP1;P1;durP2;ratioP2;P2;SDS_P1;SDS_P2;PMS_P1;PMS_P2;Temp;Humidity;BMP_temperature;BMP_pressure;BME280_temperature;BME280_humidity;BME280_pressure;Samples;Min_cycle;Max_cycle;Signal;HPM_P1;HPM_P2
2023/09/09 00:01:42;;;;;;;14.70;9.07;;;20.20;99.90;;;21.02;67.10;100588.22;6217436;23;20051;-85
2023/09/09 00:04:10;;;;;;;13.05;8.60;;;20.20;99.90;;;21.01;67.23;100574.97;6244787;23;20018;-85
2023/09/09 00:06:38;;;;;;;14.80;9.27;;;20.20;99.90;;;20.98;67.27;100581.72;6218124;23;20039;-85
2023/09/09 00:09:06;;;;;;;13.05;8.90;;;20.20;99.90;;;20.97;67.06;100579.31;6244437;23;20459;-85
2023/09/09 00:11:33;;;;;;;14.63;8.98;;;20.20;99.90;;;20.95;67.08;100576.06;6244445;23;20016;-84
2023/09/09 00:14:01;;;;;;;12.65;8.75;;;20.10;99.90;;;20.92;67.05;100582.84;6218555;23;20768;-85
2023/09/09 00:16:34;;;;;;;14.02;8.55;;;20.10;99.90;;;20.91;67.11;100575.81;6218124;23;20502;-84
2023/09/09 00:19:03;;;;;;;14.88;9.25;;;20.10;99.90;;;20.91;67.15;100581.22;6218361;23;20054;-85
2023/09/09 00:21:30;;;;;;;13.32;8.65;;;20.10;99.90;;;20.88;66.83;100576.34;6216923;23;20016;-85
2023/09/09 00:23:58;;;;;;;11.85;8.18;;;20.10;99.90;;;20.86;67.18;100577.72;6245137;23;20020;-85
2023/09/09 00:26:27;;;;;;;14.10;9.35;;;20.00;99.90;;;20.85;67.12;100571.50;6218515;23;20043;-85
2023/09/09 00:28:55;;;;;;;10.65;8.45;;;20.00;99.90;;;20.83;67.09;100579.09;6244656;23;20016;-85
2023/09/09 00:31:22;;;;;;;11.75;8.43;;;20.00;99.90;;;20.81;66.89;100575.84;6192788;23;20020;-86
2023/09/09 00:33:49;;;;;;;13.68;8.43;;;20.00;99.90;;;20.80;67.04;100574.22;6218254;23;20030;-85
2023/09/09 00:36:18;;;;;;;11.77;8.75;;;20.00;99.90;;;20.77;67.17;100567.44;6193310;23;20401;-85
2023/09/09 00:38:45;;;;;;;15.07;9.07;;;19.90;99.90;;;20.76;67.16;100556.91;6244401;23;20030;-85
2023/09/09 00:41:15;;;;;;;10.73;8.50;;;19.90;99.90;;;20.74;66.99;100554.47;6217250;23;20024;-85
2023/09/09 00:43:44;;;;;;;;;;;19.90;99.90;;;20.73;67.25;100552.81;6218727;23;20391;-85
2023/09/09 00:46:14;;;;;;;10.82;8.52;;;19.90;99.90;;;20.71;67.01;100554.19;6218089;23;19919;-85
2023/09/09 00:48:41;;;;;;;10.68;7.88;;;19.90;99.90;;;20.69;67.04;100556.34;6217105;23;20024;-85
2023/09/09 00:51:12;;;;;;;9.50;7.50;;;19.90;99.90;;;20.68;66.81;100555.56;6217065;23;20024;-85
2023/09/09 00:53:41;;;;;;;11.25;8.30;;;19.90;99.90;;;20.68;67.07;100552.03;6218272;23;20027;-85
2023/09/09 00:56:10;;;;;;;12.32;8.57;;;19.90;99.90;;;20.66;67.04;100551.50;6217780;23;20044;-85
2023/09/09 00:58:37;;;;;;;11.77;8.52;;;19.90;99.90;;;20.65;66.64;100549.91;6217656;23;20047;-85
2023/09/09 01:01:05;;;;;;;12.82;8.88;;;19.80;99.90;;;20.63;66.78;100549.34;6243810;23;20103;-85
2023/09/09 01:03:32;;;;;;;12.02;8.60;;;19.90;99.90;;;20.62;66.87;100545.00;6216698;23;20107;-85
2023/09/09 01:06:00;;;;;;;10.82;8.10;;;19.80;99.90;;;20.61;66.96;100548.81;6218110;23;20419;-85
2023/09/09 01:08:27;;;;;;;13.13;8.35;;;19.80;99.90;;;20.60;66.83;100548.00;6218230;23;20082;-85
2023/09/09 01:10:58;;;;;;;14.05;8.88;;;19.80;99.90;;;20.58;67.13;100539.31;6216328;23;20366;-85
2023/09/09 01:13:25;;;;;;;10.63;8.38;;;19.80;99.90;;;20.57;66.84;100545.84;6217565;23;20063;-85
2023/09/09 01:15:54;;;;;;;13.95;8.35;;;19.70;99.90;;;20.55;66.87;100540.72;6217344;23;20040;-85
2023/09/09 01:18:21;;;;;;;11.80;8.40;;;19.80;99.90;;;20.53;67.29;100542.06;6217523;23;20440;-85
2023/09/09 01:20:59;;;;;;;10.95;8.55;;;19.70;99.90;;;20.51;66.90;100539.63;6243502;23;20023;-85
2023/09/09 01:23:29;;;;;;;12.13;8.75;;;19.70;99.90;;;20.51;67.07;100533.41;6217521;23;20016;-85
2023/09/09 01:25:56;;;;;;;13.73;8.65;;;19.70;99.90;;;20.48;67.03;100545.59;6244280;23;20054;-85
2023/09/09 01:28:23;;;;;;;13.15;9.18;;;19.70;99.90;;;20.47;66.73;100541.25;6244204;23;20020;-85
2023/09/09 01:30:51;;;;;;;13.57;8.52;;;19.60;99.90;;;20.45;67.01;100539.91;6216460;23;20028;-85
2023/09/09 01:33:19;;;;;;;11.57;8.40;;;19.60;99.90;;;20.43;67.15;100542.06;6217288;23;20030;-85
2023/09/09 01:35:47;;;;;;;12.65;8.40;;;19.60;99.90;;;20.41;67.07;100546.94;6218005;23;20020;-85
2023/09/09 01:38:15;;;;;;;11.10;8.02;;;19.60;99.90;;;20.40;67.15;100543.44;6217404;23;20022;-84
2023/09/09 01:40:43;;;;;;;12.82;8.38;;;19.50;99.90;;;20.37;66.93;100545.88;6241732;23;20024;-85
2023/09/09 01:43:11;;;;;;;11.77;8.77;;;19.50;99.90;;;20.36;67.22;100547.78;6216638;23;20455;-85
2023/09/09 01:45:40;;;;;;;10.55;7.78;;;19.50;99.90;;;20.35;67.16;100540.72;6216994;23;20629;-85
2023/09/09 01:48:07;;;;;;;15.43;7.93;;;19.50;99.90;;;20.32;67.21;100546.69;6217609;23;20020;-85
2023/09/09 01:50:36;;;;;;;14.40;8.63;;;19.50;99.90;;;20.30;67.08;100546.97;6215857;23;20020;-85
2023/09/09 01:53:04;;;;;;;12.82;8.40;;;19.50;99.90;;;20.28;67.04;100545.59;6217723;23;20024;-85
2023/09/09 01:55:31;;;;;;;12.20;8.13;;;19.40;99.90;;;20.28;67.31;100551.84;6216915;23;20395;-85
2023/09/09 01:58:00;;;;;;;13.52;8.30;;;19.40;99.90;;;20.27;66.82;100549.41;6216938;23;20074;-85
2023/09/09 02:00:28;;;;;;;13.52;8.90;;;19.40;99.90;;;20.24;66.90;100544.53;6215989;23;20024;-85
2023/09/09 02:02:55;;;;;;;12.30;8.30;;;19.40;99.90;;;20.22;66.90;100547.53;6216964;23;20016;-85
2023/09/09 02:05:23;;;;;;;10.82;8.25;;;19.40;99.90;;;20.21;67.22;100540.47;6217542;23;20509;-84
2023/09/09 02:07:50;;;;;;;11.98;8.43;;;19.40;99.90;;;20.20;66.92;100548.88;6217479;23;20410;-85
2023/09/09 02:10:18;;;;;;;12.05;8.25;;;19.30;99.90;;;20.17;67.19;100549.44;6216715;23;20024;-85
2023/09/09 02:12:45;;;;;;;12.80;8.43;;;19.30;99.90;;;20.15;67.38;100541.56;6217157;23;20044;-85
2023/09/09 02:15:15;;;;;;;12.98;8.50;;;19.30;99.90;;;20.14;67.37;100541.84;6216725;23;20070;-85
2023/09/09 02:17:42;;;;;;;13.55;8.13;;;19.30;99.90;;;20.14;67.27;100550.78;6216808;23;20028;-85
2023/09/09 02:20:10;;;;;;;12.68;8.10;;;19.30;99.90;;;20.12;67.00;100547.53;6215848;23;20112;-85
2023/09/09 02:22:37;;;;;;;18.70;8.65;;;19.30;99.90;;;20.11;66.90;100543.22;6216864;23;20103;-85
2023/09/09 02:25:07;;;;;;;12.00;8.10;;;19.30;99.90;;;20.09;67.10;100548.06;6217544;23;20021;-85
2023/09/09 02:27:35;;;;;;;13.15;7.97;;;19.20;99.90;;;20.06;66.97;100546.72;6191164;23;20040;-85
2023/09/09 02:30:02;;;;;;;11.43;8.18;;;19.20;99.90;;;20.05;66.89;100547.78;6216312;23;20051;-85
2023/09/09 02:32:31;;;;;;;12.90;8.35;;;19.20;99.90;;;20.05;66.91;100542.38;6217051;23;20021;-85
2023/09/09 02:34:59;;;;;;;12.10;8.13;;;19.20;99.90;;;20.02;67.12;100537.53;6217163;23;20028;-85
2023/09/09 02:37:28;;;;;;;12.20;8.55;;;19.20;99.90;;;20.02;66.98;100542.13;6216536;23;20359;-85
2023/09/09 02:39:55;;;;;;;10.27;7.82;;;19.20;99.90;;;20.01;66.97;100541.31;6216265;23;20522;-85
2023/09/09 02:42:24;;;;;;;12.30;7.85;;;19.20;99.90;;;20.01;66.87;100540.50;6217023;23;20027;-85
2023/09/09 02:44:51;;;;;;;15.15;8.68;;;19.20;99.90;;;19.99;66.98;100540.75;6217325;23;20325;-85
2023/09/09 02:47:20;;;;;;;11.50;7.95;;;19.20;99.90;;;19.98;66.90;100531.03;6215898;23;20031;-85
2023/09/09 02:49:50;;;;;;;16.92;8.52;;;19.20;99.90;;;19.96;67.14;100532.38;6216014;23;20012;-85
2023/09/09 02:52:17;;;;;;;11.05;7.82;;;19.10;99.90;;;19.92;67.04;100529.41;6217435;23;20090;-85
2023/09/09 02:54:44;;;;;;;13.00;8.32;;;19.10;99.90;;;19.92;67.31;100534.03;6218576;23;20024;-85
2023/09/09 02:57:12;;;;;;;12.13;8.48;;;19.10;99.90;;;19.91;67.24;100535.06;6217880;23;20035;-85
2023/09/09 02:59:39;;;;;;;13.48;8.25;;;19.10;99.90;;;19.91;67.09;100535.91;6218859;23;20027;-85
2023/09/09 03:02:09;;;;;;;11.77;8.73;;;19.10;99.90;;;19.89;67.12;100534.56;6217985;23;20419;-85
2023/09/09 03:04:37;;;;;;;11.18;7.75;;;19.10;99.90;;;19.85;67.03;100536.16;6219209;23;20447;-84
2023/09/09 03:07:05;;;;;;;13.13;8.32;;;19.00;99.90;;;19.83;67.24;100528.34;6219011;23;20107;-84
2023/09/09 03:09:35;;;;;;;11.60;8.00;;;19.00;99.90;;;19.82;67.02;100528.63;6245318;23;20028;-85
2023/09/09 03:12:05;;;;;;;11.10;7.53;;;19.00;99.90;;;19.80;67.02;100529.66;6217923;23;20023;-85
2023/09/09 03:14:32;;;;;;;12.60;7.63;;;19.00;99.90;;;19.80;67.10;100526.16;6217683;23;20016;-84
2023/09/09 03:17:00;;;;;;;13.18;8.77;;;19.00;99.90;;;19.78;67.11;100534.56;6218419;23;20031;-85
2023/09/09 03:19:28;;;;;;;11.77;7.72;;;19.00;99.90;;;19.77;67.27;100532.13;6218463;23;20016;-85
2023/09/09 03:21:57;;;;;;;11.27;8.00;;;19.00;99.90;;;19.74;66.99;100535.38;6218497;23;20020;-84
2023/09/09 03:24:26;;;;;;;10.90;7.32;;;18.90;99.90;;;19.70;66.72;100529.66;6218825;23;20028;-85
2023/09/09 03:26:53;;;;;;;12.82;7.57;;;18.90;99.90;;;19.71;66.98;100530.47;6218950;23;20028;-85
2023/09/09 03:29:21;;;;;;;13.18;7.85;;;18.80;99.90;;;19.68;67.05;100536.44;6218758;23;20024;-85
2023/09/09 03:31:48;;;;;;;14.60;8.18;;;18.90;99.90;;;19.70;66.80;100531.56;6218037;23;20016;-84
2023/09/09 03:34:16;;;;;;;10.73;7.63;;;18.80;99.90;;;19.68;67.06;100531.03;6219057;23;20027;-84
2023/09/09 03:36:43;;;;;;;12.57;7.68;;;18.90;99.90;;;19.67;67.52;100535.66;6218630;23;20020;-84
2023/09/09 03:39:11;;;;;;;10.15;7.57;;;18.80;99.90;;;19.65;67.39;100536.97;6218436;23;20016;-85
2023/09/09 03:41:41;;;;;;;15.95;7.82;;;18.80;99.90;;;19.64;67.12;100538.06;6218406;23;20071;-85
2023/09/09 03:44:08;;;;;;;11.25;7.30;;;18.80;99.90;;;19.61;67.11;100528.59;6218696;23;20046;-85
2023/09/09 03:46:36;;;;;;;11.57;7.00;;;18.80;99.90;;;19.59;66.97;100533.44;6218019;23;20355;-85
2023/09/09 03:49:03;;;;;;;10.40;7.28;;;18.70;99.90;;;19.58;66.96;100536.41;6218800;23;20043;-85
2023/09/09 03:51:31;;;;;;;16.13;7.90;;;18.70;99.90;;;19.57;67.26;100535.59;6217783;23;20260;-85
2023/09/09 03:54:00;;;;;;;11.35;7.68;;;18.70;99.90;;;19.58;67.25;100536.41;6218476;23;20054;-85
2023/09/09 03:56:27;;;;;;;11.57;7.25;;;18.70;99.90;;;19.55;66.95;100546.69;6218181;23;20027;-84
2023/09/09 03:58:57;;;;;;;11.25;7.20;;;18.70;99.90;;;19.52;67.17;100539.13;6217958;23;20016;-84
2023/09/09 04:01:25;;;;;;;10.23;7.30;;;18.70;99.90;;;19.52;67.06;100533.72;6217883;23;20020;-84
2023/09/09 04:03:52;;;;;;;10.70;7.50;;;18.70;99.90;;;19.53;67.19;100540.75;6218449;23;20074;-84
2023/09/09 04:06:20;;;;;;;13.18;7.63;;;18.70;99.90;;;19.56;67.65;100533.97;6218201;23;20035;-84
2023/09/09 04:08:49;;;;;;;12.43;7.25;;;18.80;99.90;;;19.53;67.48;100535.31;6218236;23;20506;-84
2023/09/09 04:11:17;;;;;;;9.98;7.10;;;18.70;99.90;;;19.52;67.61;100543.69;6217401;23;20048;-84
2023/09/09 04:13:44;;;;;;;10.90;7.28;;;18.70;99.90;;;19.50;67.63;100541.25;6218035;23;20058;-84
2023/09/09 04:16:14;;;;;;;11.38;7.43;;;18.70;99.90;;;19.50;67.33;100545.88;6218178;23;20028;-84
2023/09/09 04:18:41;;;;;;;9.20;6.95;;;18.70;99.90;;;19.48;67.60;100546.13;6217899;23;20405;-84
2023/09/09 04:21:09;;;;;;;12.25;7.63;;;18.70;99.90;;;19.46;67.13;100545.59;6218460;23;20024;-84
2023/09/09 04:23:36;;;;;;;11.50;7.22;;;18.60;99.90;;;19.43;67.09;100543.44;6193425;23;20020;-84
2023/09/09 04:26:03;;;;;;;10.52;7.32;;;18.70;99.90;;;19.41;67.33;100542.88;6218291;23;20060;-84
2023/09/09 04:28:32;;;;;;;11.27;7.20;;;18.60;99.90;;;19.41;67.43;100542.88;6217814;23;20032;-84
2023/09/09 04:31:00;;;;;;;11.20;6.75;;;18.60;99.90;;;19.41;67.10;100552.88;6217493;23;20410;-84
2023/09/09 04:33:29;;;;;;;9.30;6.60;;;18.60;99.90;;;19.38;66.80;100548.03;6218228;23;20024;-84
2023/09/09 04:35:56;;;;;;;9.93;7.40;;;18.50;99.90;;;19.36;66.94;100540.16;6217905;23;20027;-84
2023/09/09 04:38:23;;;;;;;14.95;8.00;;;18.50;99.90;;;19.33;67.19;100551.53;6217889;23;20024;-84
2023/09/09 04:40:52;;;;;;;11.02;7.13;;;18.50;99.90;;;19.31;67.26;100548.25;6217463;23;20537;-84
2023/09/09 04:43:20;;;;;;;12.75;6.70;;;18.50;99.90;;;19.31;67.23;100548.25;6217624;23;20229;-85
2023/09/09 04:45:48;;;;;;;10.70;7.10;;;18.50;99.90;;;19.30;67.19;100550.16;6218054;23;20422;-85
2023/09/09 04:48:15;;;;;;;11.88;7.05;;;18.50;99.90;;;19.30;67.24;100555.56;6193284;23;20024;-85
2023/09/09 04:50:44;;;;;;;11.10;7.68;;;18.50;99.90;;;19.28;67.25;100559.63;6217574;23;20715;-85
2023/09/09 04:53:12;;;;;;;11.10;7.50;;;18.50;99.90;;;19.26;67.21;100556.38;6218054;23;20051;-85
2023/09/09 04:55:39;;;;;;;9.60;6.80;;;18.50;99.90;;;19.25;67.33;100560.16;6218037;23;20402;-86
2023/09/09 04:58:10;;;;;;;9.35;6.88;;;18.40;99.90;;;19.24;67.32;100553.13;6217843;23;20016;-85
2023/09/09 05:00:38;;;;;;;10.60;6.78;;;18.40;99.90;;;19.21;67.17;100557.16;6216866;23;20665;-86
2023/09/09 05:03:05;;;;;;;10.63;6.70;;;18.40;99.90;;;19.22;67.45;100564.19;6217472;23;20016;-85
2023/09/09 05:05:32;;;;;;;10.00;7.25;;;18.40;99.90;;;19.20;67.43;100557.44;6218423;23;20390;-85
2023/09/09 05:08:01;;;;;;;9.48;7.03;;;18.40;99.90;;;19.18;67.46;100564.97;6218262;23;20398;-84
2023/09/09 05:10:32;;;;;;;14.40;7.00;;;18.40;99.90;;;19.16;67.76;100565.25;6217101;23;20040;-84
2023/09/09 05:13:00;;;;;;;14.55;7.07;;;18.40;99.90;;;19.15;67.54;100565.53;6217376;23;20024;-84
2023/09/09 05:15:27;;;;;;;12.38;6.75;;;18.30;99.90;;;19.15;68.11;100573.66;6217122;23;20016;-84
2023/09/09 05:17:54;;;;;;;10.73;6.80;;;18.40;99.90;;;19.17;67.85;100574.19;6217795;23;20398;-86
2023/09/09 05:20:22;;;;;;;11.95;7.03;;;18.40;99.90;;;19.18;67.54;100568.53;6217066;23;20455;-85
2023/09/09 05:22:50;;;;;;;12.63;6.70;;;18.40;99.90;;;19.17;67.93;100572.28;6217328;23;20021;-83
2023/09/09 05:25:19;;;;;;;9.65;7.30;;;18.40;99.90;;;19.16;68.31;100570.66;6217768;23;20073;-84
2023/09/09 05:27:46;;;;;;;10.50;6.97;;;18.40;99.90;;;19.15;68.21;100570.94;6217503;23;20031;-84
2023/09/09 05:30:14;;;;;;;10.40;6.93;;;18.40;99.90;;;19.16;68.26;100573.38;6216708;23;20024;-85
2023/09/09 05:32:42;;;;;;;11.60;6.78;;;18.40;99.90;;;19.19;68.79;100566.63;6217114;23;20027;-84
2023/09/09 05:35:12;;;;;;;8.32;6.75;;;18.50;99.90;;;19.20;68.54;100579.88;6216439;23;20020;-84
2023/09/09 05:37:40;;;;;;;11.80;6.72;;;18.50;99.90;;;19.21;68.61;100575.28;6191767;23;20020;-84
2023/09/09 05:40:10;;;;;;;11.38;7.30;;;18.50;99.90;;;19.23;68.90;100578.56;6214913;23;20024;-84
2023/09/09 05:42:39;;;;;;;9.60;6.90;;;18.50;99.90;;;19.22;68.84;100583.13;6216429;23;20090;-84
2023/09/09 05:45:09;;;;;;;12.85;6.88;;;18.50;99.90;;;19.23;69.15;100578.56;6216043;23;20090;-84
2023/09/09 05:47:36;;;;;;;9.25;7.18;;;18.50;99.90;;;19.25;69.11;100587.19;6216645;23;20055;-84
2023/09/09 05:50:07;;;;;;;9.02;6.32;;;18.50;99.90;;;19.26;69.49;100588.81;6215964;23;20517;-85
2023/09/09 05:52:38;;;;;;;8.50;6.97;;;18.60;99.90;;;19.26;69.80;100588.81;6217040;23;20030;-88
2023/09/09 05:55:08;;;;;;;9.95;6.55;;;18.60;99.90;;;19.28;70.07;100589.38;6217553;23;20023;-89
2023/09/09 05:57:40;;;;;;;12.07;7.22;;;18.60;99.90;;;19.30;70.56;100600.72;6217809;23;20016;-89
2023/09/09 06:00:09;;;;;;;12.35;7.53;;;18.70;99.90;;;19.33;70.43;100589.41;6216230;23;20043;-88
2023/09/09 06:02:45;;;;;;;9.50;7.00;;;18.70;99.90;;;19.36;70.75;100594.25;6216313;23;20022;-89
2023/09/09 06:05:13;;;;;;;11.80;7.20;;;18.70;99.90;;;19.38;70.76;100586.69;6216454;23;20016;-87
2023/09/09 06:07:41;;;;;;;11.93;7.25;;;18.80;99.90;;;19.43;71.08;100591.31;6217304;23;20027;-87
2023/09/09 06:10:09;;;;;;;9.00;7.05;;;18.90;99.90;;;19.47;71.33;100597.78;6216955;23;20039;-87
2023/09/09 06:12:38;;;;;;;13.27;7.32;;;18.90;99.90;;;19.49;71.74;100592.94;6217356;23;20030;-87
2023/09/09 06:15:08;;;;;;;12.82;7.65;;;19.00;99.90;;;19.52;72.25;100593.22;6216736;23;20103;-87
2023/09/09 06:17:39;;;;;;;10.80;7.32;;;19.00;99.90;;;19.56;72.44;100605.13;6217278;23;20074;-87
2023/09/09 06:20:09;;;;;;;9.50;7.30;;;19.10;99.90;;;19.58;72.30;100604.06;6216466;23;20023;-88
2023/09/09 06:22:37;;;;;;;12.35;7.80;;;19.20;99.90;;;19.63;72.79;100613.03;6217415;23;20444;-87
2023/09/09 06:25:06;;;;;;;12.98;7.55;;;19.20;99.90;;;19.68;72.76;100599.50;6217701;23;20020;-87
2023/09/09 06:27:34;;;;;;;10.05;7.20;;;19.30;99.90;;;19.74;72.11;100608.44;6177509;23;20028;-79
2023/09/09 06:30:03;;;;;;;12.40;8.60;;;19.40;99.90;;;19.81;72.67;100614.38;6180938;23;20071;-79
2023/09/09 06:32:30;;;;;;;10.77;7.80;;;19.50;99.90;;;19.87;72.23;100607.09;6156933;23;20029;-82
2023/09/09 06:34:57;;;;;;;11.63;7.43;;;19.60;99.90;;;19.90;72.07;100607.34;6185106;23;20017;-81
2023/09/09 06:37:25;;;;;;;12.73;8.63;;;19.60;99.90;;;19.96;72.83;100598.19;6157753;23;20578;-81
2023/09/09 06:39:52;;;;;;;13.30;8.70;;;19.70;99.90;;;20.05;72.71;100607.38;6182851;23;20020;-81
2023/09/09 06:42:19;;;;;;;15.25;8.60;;;19.80;99.90;;;20.14;73.10;100604.13;6183745;23;20359;-81
2023/09/09 06:44:52;;;;;;;19.17;8.43;;;19.80;99.90;;;20.21;73.29;100608.19;6157187;23;20021;-82
2023/09/09 06:47:21;;;;;;;17.13;8.50;;;19.90;99.90;;;20.31;73.45;100613.59;6183970;23;20457;-86
2023/09/09 06:49:48;;;;;;;14.80;8.35;;;20.00;99.90;;;20.39;72.57;100622.25;6159025;23;20017;-83
2023/09/09 06:52:15;;;;;;;15.70;7.95;;;20.10;99.90;;;20.47;72.64;100613.59;6158856;23;20104;-83
2023/09/09 06:54:43;;;;;;;14.93;8.23;;;20.30;99.90;;;20.54;73.45;100623.06;6185225;23;20040;-83
2023/09/09 06:57:11;;;;;;;15.68;8.02;;;20.30;99.90;;;20.61;73.64;100617.38;6184347;23;20747;-80
2023/09/09 06:59:39;;;;;;;12.43;8.18;;;20.40;99.90;;;20.70;73.77;100623.06;6184613;23;20020;-80
2023/09/09 07:02:06;;;;;;;17.33;8.30;;;20.50;99.90;;;20.74;75.31;100624.09;6184595;23;20020;-83
2023/09/09 07:04:36;;;;;;;14.77;7.72;;;20.60;99.90;;;20.81;74.09;100624.66;6184545;23;20415;-83
2023/09/09 07:07:03;;;;;;;14.02;7.20;;;20.70;99.90;;;20.87;74.23;100630.88;6185160;23;20635;-83
2023/09/09 07:09:30;;;;;;;10.80;6.97;;;20.70;99.90;;;20.91;71.82;100630.03;6185566;23;20079;-82
2023/09/09 07:11:59;;;;;;;12.00;7.35;;;20.80;99.90;;;21.02;73.97;100630.81;6184721;23;20029;-87
2023/09/09 07:14:26;;;;;;;11.25;7.43;;;20.90;99.90;;;21.08;75.44;100629.69;6185965;23;20020;-84
2023/09/09 07:16:53;;;;;;;11.77;8.00;;;21.00;99.90;;;21.15;74.58;100627.50;6184807;23;20020;-81
2023/09/09 07:19:21;;;;;;;11.52;7.72;;;21.10;99.90;;;21.23;74.54;100634.28;6184413;23;20064;-80
2023/09/09 07:21:49;;;;;;;11.60;6.72;;;21.20;99.90;;;21.27;71.84;100636.13;6182799;23;20048;-81
2023/09/09 07:24:16;;;;;;;11.15;7.32;;;21.30;99.90;;;21.38;70.48;100639.66;6184890;23;20460;-80
2023/09/09 07:26:43;;;;;;;13.50;7.38;;;21.40;99.90;;;21.49;69.95;100633.06;6183941;23;20051;-81
2023/09/09 07:29:11;;;;;;;11.40;7.07;;;21.50;99.90;;;21.57;69.94;100627.06;6184312;23;20615;-81
2023/09/09 07:31:38;;;;;;;13.05;7.35;;;21.60;99.90;;;21.68;69.39;100629.72;6183669;23;20027;-80
2023/09/09 07:34:05;;;;;;;9.68;7.10;;;21.70;99.90;;;21.76;68.92;100629.09;6183852;23;20073;-80
2023/09/09 07:36:33;;;;;;;13.30;7.07;;;21.80;99.90;;;21.84;69.02;100626.59;6183355;23;20044;-80
2023/09/09 07:39:02;;;;;;;10.77;7.10;;;21.90;99.90;;;21.92;68.16;100627.94;6183282;23;20029;-81
2023/09/09 07:41:32;;;;;;;12.82;7.40;;;22.00;99.90;;;22.01;67.81;100631.66;6183577;23;20021;-82
2023/09/09 07:43:59;;;;;;;12.00;7.30;;;22.10;99.90;;;22.09;66.80;100624.78;6184749;23;20019;-80
2023/09/09 07:46:28;;;;;;;12.57;7.20;;;22.20;99.90;;;22.19;66.85;100627.44;6182202;23;20048;-82
2023/09/09 07:48:55;;;;;;;10.95;6.95;;;22.30;99.90;;;22.30;67.41;100626.28;6182517;23;20025;-83
2023/09/09 07:51:22;;;;;;;10.35;7.03;;;22.50;99.90;;;22.39;67.05;100631.09;6182628;23;20024;-83
2023/09/09 07:53:49;;;;;;;9.57;6.68;;;22.50;99.90;;;22.48;66.32;100632.09;6182530;23;20021;-83
2023/09/09 07:56:18;;;;;;;11.52;7.32;;;22.60;99.90;;;22.55;66.18;100627.16;6184891;23;20076;-83
2023/09/09 07:58:45;;;;;;;13.85;7.35;;;22.70;99.90;;;22.66;66.13;100628.66;6159328;23;20080;-83
2023/09/09 08:01:13;;;;;;;12.73;7.20;;;22.80;99.90;;;22.75;65.97;100629.66;6184760;23;20023;-84
2023/09/09 08:03:40;;;;;;;10.85;6.57;;;22.90;99.90;;;22.82;66.32;100634.72;6185795;23;20498;-86
2023/09/09 08:06:10;;;;;;;10.80;7.30;;;23.00;99.90;;;22.88;66.90;100644.44;6185824;23;20062;-86
2023/09/09 08:08:37;;;;;;;14.65;7.10;;;23.10;99.90;;;22.95;65.50;100636.78;6185870;23;20029;-86
2023/09/09 08:11:08;;;;;;;12.00;6.80;;;23.20;99.90;;;23.03;66.69;100641.56;6184202;23;20424;-86
2023/09/09 08:13:37;;;;;;;12.43;7.20;;;23.30;99.90;;;23.08;64.54;100640.72;6185615;23;20048;-86
2023/09/09 08:16:04;;;;;;;11.25;7.28;;;23.30;99.90;;;23.17;66.77;100636.25;6185560;23;20419;-86
2023/09/09 08:18:31;;;;;;;14.75;7.20;;;23.40;99.90;;;23.22;65.24;100646.25;6185673;23;20064;-86
2023/09/09 08:20:58;;;;;;;12.77;7.13;;;23.40;99.90;;;23.28;64.94;100642.41;6185053;23;20016;-86
2023/09/09 08:23:26;;;;;;;10.50;6.80;;;23.50;99.90;;;23.35;64.33;100643.66;6183785;23;20405;-86
2023/09/09 08:25:55;;;;;;;11.48;7.45;;;23.60;99.90;;;23.45;64.44;100639.97;6185263;23;20048;-86
2023/09/09 08:28:23;;;;;;;11.05;6.75;;;23.70;99.90;;;23.52;65.65;100647.78;6182614;23;20021;-84
2023/09/09 08:30:59;;;;;;;10.65;6.93;;;23.70;99.90;;;23.57;64.42;100644.97;6185968;23;20021;-86
2023/09/09 08:33:26;;;;;;;11.63;7.00;;;23.80;99.90;;;23.61;62.93;100644.09;6183259;23;20028;-86
2023/09/09 08:35:57;;;;;;;12.02;6.90;;;23.80;99.90;;;23.69;65.27;100647.31;6183493;23;20027;-86
2023/09/09 08:38:24;;;;;;;14.80;6.35;;;23.90;99.90;;;23.75;64.11;100652.38;6185532;23;20095;-86
2023/09/09 08:40:59;;;;;;;13.23;7.28;;;24.00;99.90;;;23.84;65.54;100655.25;6184486;23;20024;-86
2023/09/09 08:43:38;;;;;;;13.50;7.10;;;24.10;99.90;;;23.85;63.65;100649.50;6185429;23;20021;-83
2023/09/09 08:46:13;;;;;;;14.50;6.53;;;24.10;99.90;;;23.92;65.27;100656.50;6184607;23;20077;-83
2023/09/09 08:48:42;;;;;;;13.25;6.97;;;24.20;99.90;;;23.96;65.73;100649.34;6186874;23;20024;-83
2023/09/09 08:51:14;;;;;;;12.82;6.50;;;24.30;99.90;;;24.03;64.73;100647.88;6186199;23;20017;-84
2023/09/09 08:53:42;;;;;;;14.13;7.57;;;24.40;99.90;;;24.10;66.64;100648.28;6184242;23;20017;-84
2023/09/09 08:56:12;;;;;;;14.45;7.07;;;24.40;99.90;;;24.17;65.39;100644.41;6183644;23;20124;-83
2023/09/09 08:58:40;;;;;;;11.18;7.25;;;24.50;99.90;;;24.23;63.79;100652.19;6183399;23;20048;-84
2023/09/09 09:01:16;;;;;;;11.40;6.68;;;24.50;99.90;;;24.29;64.42;100650.19;6181212;23;20056;-86
2023/09/09 09:03:47;;;;;;;13.00;6.30;;;24.60;99.90;;;24.32;65.63;100646.88;6181217;23;20027;-84
2023/09/09 09:06:17;;;;;;;16.95;7.13;;;24.70;99.90;;;24.37;64.88;100657.72;6181097;23;20025;-80
2023/09/09 09:08:52;;;;;;;15.30;7.57;;;24.70;99.90;;;24.45;65.97;100651.59;6182521;23;20348;-79
2023/09/09 09:11:21;;;;;;;10.90;6.95;;;24.80;99.90;;;24.51;64.48;100652.31;6181671;23;20117;-79
2023/09/09 09:13:50;;;;;;;9.35;6.50;;;24.80;99.90;;;24.56;61.94;100653.00;6183149;23;20072;-79
2023/09/09 09:16:19;;;;;;;15.20;7.10;;;24.90;99.90;;;24.54;64.39;100652.47;6183345;23;20444;-79
2023/09/09 09:18:46;;;;;;;11.80;7.40;;;24.90;99.90;;;24.61;63.69;100642.00;6183416;23;20024;-79
2023/09/09 09:21:13;;;;;;;15.07;6.82;;;24.90;99.90;;;24.62;64.17;100651.81;6181039;23;20035;-80
2023/09/09 09:23:44;;;;;;;11.32;6.22;;;25.00;99.90;;;24.66;64.37;100650.09;6181452;23;20089;-79
2023/09/09 09:26:26;;;;;;;19.00;6.88;;;25.00;99.90;;;24.78;64.29;100646.06;6182141;23;20060;-80
2023/09/09 09:28:53;;;;;;;20.08;7.55;;;25.10;99.90;;;24.78;64.79;100654.25;6153483;23;20025;-80
2023/09/09 09:31:22;;;;;;;15.07;6.28;;;25.10;99.90;;;24.79;64.06;100650.41;6125468;23;20345;-80
2023/09/09 09:33:52;;;;;;;13.85;6.57;;;25.20;99.90;;;24.86;63.88;100651.63;6153977;23;20045;-80
2023/09/09 09:36:21;;;;;;;19.05;6.90;;;25.20;99.90;;;24.95;63.78;100653.66;6153528;23;20060;-80
2023/09/09 09:38:49;;;;;;;16.40;7.05;;;25.20;99.90;;;24.95;63.35;100649.00;6153594;23;20370;-80
2023/09/09 09:41:18;;;;;;;23.10;7.05;;;25.30;99.90;;;25.00;63.16;100648.91;6152506;23;20691;-80
2023/09/09 09:43:46;;;;;;;15.77;7.45;;;25.30;99.90;;;25.01;64.08;100645.06;6128012;23;20021;-81
2023/09/09 09:46:14;;;;;;;15.45;6.93;;;25.30;99.90;;;24.99;64.15;100646.50;6127853;23;20049;-81
2023/09/09 09:48:44;;;;;;;14.77;6.53;;;25.30;99.90;;;25.08;61.58;100640.03;6154128;23;20036;-80
2023/09/09 09:51:12;;;;;;;11.18;6.75;;;25.40;99.90;;;25.09;64.38;100647.13;6126521;23;20052;-80
2023/09/09 09:53:53;;;;;;;15.13;6.65;;;25.50;99.90;;;25.09;62.75;100644.41;6126542;23;20044;-79
2023/09/09 09:56:21;;;;;;;22.00;7.60;;;25.50;99.90;;;25.08;62.73;100645.47;6126657;23;20475;-79
2023/09/09 09:58:50;;;;;;;13.50;6.75;;;25.40;99.90;;;25.08;63.39;100645.47;6153697;23;20025;-79
2023/09/09 10:01:18;;;;;;;21.17;7.20;;;25.40;99.90;;;25.14;64.83;100638.81;6153437;23;20072;-85
2023/09/09 10:03:55;;;;;;;16.33;6.47;;;25.50;99.90;;;25.16;63.87;100642.03;6156399;23;20017;-83
2023/09/09 10:06:28;;;;;;;19.10;7.10;;;25.50;99.90;;;25.19;62.43;100637.09;6130319;23;20037;-83
2023/09/09 10:09:03;;;;;;;18.55;7.10;;;25.50;99.90;;;25.24;62.68;100645.19;6129700;23;20041;-83
2023/09/09 10:11:38;;;;;;;11.63;6.05;;;25.50;99.90;;;25.24;63.49;100637.00;6155907;23;20032;-81
2023/09/09 10:14:14;;;;;;;17.13;6.25;;;25.60;99.90;;;25.30;62.02;100636.56;6155331;23;20052;-80